sensor_id;sensor_type;location;lat;lon;timestamp;P1;durP1;ratioP1;P2;durP2;ratioP2
10009;SDS011;5044;48.652;9.250;2023-03-01T00:01:29;14.82;;;8.38;;
10009;SDS011;5044;48.652;9.250;2023-03-01T00:03:57;14.13;;;7.45;;
10009;SDS011;5044;48.652;9.250;2023-03-01T00:06:25;15.18;;;7.63;;
10009;SDS011;5044;48.652;9.250;2023-03-01T00:08:53;15.65;;;7.35;;
10009;SDS011;5044;48.652;9.250;2023-03-01T00:11:22;13.02;;;7.13;;
10009;SDS011;5044;48.652;9.250;2023-03-01T00:13:51;16.38;;;7.88;;
10009;SDS011;5044;48.652;9.250;2023-03-01T00:16:19;13.60;;;7.47;;
10009;SDS011;5044;48.652;9.250;2023-03-01T00:18:48;21.75;;;8.23;;
10009;SDS011;5044;48.652;9.250;2023-03-01T00:21:15;17.38;;;7.85;;
10009;SDS011;5044;48.652;9.250;2023-03-01T00:23:43;17.40;;;7.75;;
10009;SDS011;5044;48.652;9.250;2023-03-01T00:26:10;15.57;;;7.75;;
10009;SDS011;5044;48.652;9.250;2023-03-01T00:28:41;16.40;;;8.07;;
10009;SDS011;5044;48.652;9.250;2023-03-01T00:31:10;14.93;;;7.70;;
10009;SDS011;5044;48.652;9.250;2023-03-01T00:33:39;14.10;;;7.13;;
10009;SDS011;5044;48.652;9.250;2023-03-01T00:36:06;18.13;;;7.65;;
10009;SDS011;5044;48.652;9.250;2023-03-01T00:38:35;16.23;;;8.05;;
10009;SDS011;5044;48.652;9.250;2023-03-01T00:41:03;14.02;;;7.68;;
10009;SDS011;5044;48.652;9.250;2023-03-01T00:43:31;15.02;;;7.78;;
10009;SDS011;5044;48.652;9.250;2023-03-01T00:46:04;18.25;;;7.65;;
10009;SDS011;5044;48.652;9.250;2023-03-01T00:48:32;15.07;;;7.80;;
10009;SDS011;5044;48.652;9.250;2023-03-01T00:51:03;17.73;;;7.60;;
10009;SDS011;5044;48.652;9.250;2023-03-01T00:55:58;10.65;;;6.45;;
10009;SDS011;5044;48.652;9.250;2023-03-01T00:58:25;14.80;;;8.02;;
10009;SDS011;5044;48.652;9.250;2023-03-01T01:00:52;14.18;;;7.70;;
10009;SDS011;5044;48.652;9.250;2023-03-01T01:03:21;18.40;;;9.60;;
10009;SDS011;5044;48.652;9.250;2023-03-01T01:05:49;16.60;;;9.02;;
10009;SDS011;5044;48.652;9.250;2023-03-01T01:08:16;20.05;;;8.90;;
10009;SDS011;5044;48.652;9.250;2023-03-01T01:10:43;16.40;;;8.07;;
10009;SDS011;5044;48.652;9.250;2023-03-01T01:13:10;16.92;;;8.27;;
10009;SDS011;5044;48.652;9.250;2023-03-01T01:15:38;21.92;;;9.20;;
10009;SDS011;5044;48.652;9.250;2023-03-01T01:18:05;19.13;;;9.95;;
10009;SDS011;5044;48.652;9.250;2023-03-01T01:20:34;19.13;;;9.40;;
10009;SDS011;5044;48.652;9.250;2023-03-01T01:23:02;19.80;;;9.13;;
10009;SDS011;5044;48.652;9.250;2023-03-01T01:25:33;21.95;;;8.82;;
10009;SDS011;5044;48.652;9.250;2023-03-01T01:28:01;21.17;;;9.85;;
10009;SDS011;5044;48.652;9.250;2023-03-01T01:30:27;21.40;;;9.50;;
10009;SDS011;5044;48.652;9.250;2023-03-01T01:32:54;19.90;;;10.07;;
10009;SDS011;5044;48.652;9.250;2023-03-01T01:35:21;19.73;;;10.05;;
10009;SDS011;5044;48.652;9.250;2023-03-01T01:37:50;16.98;;;9.35;;
10009;SDS011;5044;48.652;9.250;2023-03-01T01:40:17;16.23;;;8.75;;
10009;SDS011;5044;48.652;9.250;2023-03-01T01:42:44;16.15;;;9.18;;
10009;SDS011;5044;48.652;9.250;2023-03-01T01:45:28;15.95;;;8.40;;
10009;SDS011;5044;48.652;9.250;2023-03-01T01:47:59;17.75;;;8.73;;
10009;SDS011;5044;48.652;9.250;2023-03-01T01:50:29;18.15;;;9.38;;
10009;SDS011;5044;48.652;9.250;2023-03-01T01:53:07;15.55;;;8.52;;
10009;SDS011;5044;48.652;9.250;2023-03-01T01:55:42;18.58;;;9.35;;
10009;SDS011;5044;48.652;9.250;2023-03-01T01:58:13;19.77;;;8.98;;
10009;SDS011;5044;48.652;9.250;2023-03-01T02:00:44;17.88;;;8.02;;
10009;SDS011;5044;48.652;9.250;2023-03-01T02:03:12;19.38;;;8.70;;
10009;SDS011;5044;48.652;9.250;2023-03-01T02:05:44;17.55;;;8.40;;
10009;SDS011;5044;48.652;9.250;2023-03-01T02:08:19;15.40;;;9.02;;
10009;SDS011;5044;48.652;9.250;2023-03-01T02:10:47;19.08;;;8.90;;
10009;SDS011;5044;48.652;9.250;2023-03-01T02:13:15;17.35;;;8.57;;
10009;SDS011;5044;48.652;9.250;2023-03-01T02:15:42;13.73;;;7.97;;
10009;SDS011;5044;48.652;9.250;2023-03-01T02:18:10;17.88;;;8.32;;
10009;SDS011;5044;48.652;9.250;2023-03-01T02:20:42;16.90;;;8.68;;
10009;SDS011;5044;48.652;9.250;2023-03-01T02:23:18;15.73;;;7.85;;
10009;SDS011;5044;48.652;9.250;2023-03-01T02:25:49;17.80;;;9.27;;
10009;SDS011;5044;48.652;9.250;2023-03-01T02:31:05;13.13;;;8.25;;
10009;SDS011;5044;48.652;9.250;2023-03-01T02:33:52;19.58;;;8.80;;
10009;SDS011;5044;48.652;9.250;2023-03-01T02:36:22;18.85;;;8.20;;
10009;SDS011;5044;48.652;9.250;2023-03-01T02:38:52;18.02;;;8.57;;
10009;SDS011;5044;48.652;9.250;2023-03-01T02:41:24;19.92;;;9.55;;
10009;SDS011;5044;48.652;9.250;2023-03-01T02:43:56;16.35;;;8.88;;
10009;SDS011;5044;48.652;9.250;2023-03-01T02:46:24;22.60;;;9.45;;
10009;SDS011;5044;48.652;9.250;2023-03-01T02:48:52;16.23;;;8.57;;
10009;SDS011;5044;48.652;9.250;2023-03-01T02:51:26;14.88;;;7.88;;
10009;SDS011;5044;48.652;9.250;2023-03-01T02:54:13;20.67;;;9.02;;
10009;SDS011;5044;48.652;9.250;2023-03-01T02:56:46;15.27;;;8.48;;
10009;SDS011;5044;48.652;9.250;2023-03-01T02:59:15;19.00;;;9.63;;
10009;SDS011;5044;48.652;9.250;2023-03-01T03:01:44;19.85;;;9.00;;
10009;SDS011;5044;48.652;9.250;2023-03-01T03:04:13;19.50;;;8.10;;
10009;SDS011;5044;48.652;9.250;2023-03-01T03:06:42;20.75;;;9.18;;
10009;SDS011;5044;48.652;9.250;2023-03-01T03:09:09;19.20;;;9.10;;
10009;SDS011;5044;48.652;9.250;2023-03-01T03:11:36;17.83;;;8.25;;
10009;SDS011;5044;48.652;9.250;2023-03-01T03:14:04;16.17;;;8.35;;
10009;SDS011;5044;48.652;9.250;2023-03-01T03:16:40;17.42;;;8.30;;
10009;SDS011;5044;48.652;9.250;2023-03-01T03:19:08;17.33;;;8.68;;
10009;SDS011;5044;48.652;9.250;2023-03-01T03:21:35;16.83;;;8.65;;
10009;SDS011;5044;48.652;9.250;2023-03-01T03:24:02;18.30;;;8.93;;
10009;SDS011;5044;48.652;9.250;2023-03-01T03:26:30;17.67;;;9.57;;
10009;SDS011;5044;48.652;9.250;2023-03-01T03:28:57;17.83;;;9.75;;
10009;SDS011;5044;48.652;9.250;2023-03-01T03:31:24;17.80;;;8.88;;
10009;SDS011;5044;48.652;9.250;2023-03-01T03:33:53;18.27;;;8.88;;
10009;SDS011;5044;48.652;9.250;2023-03-01T03:36:21;17.17;;;9.68;;
10009;SDS011;5044;48.652;9.250;2023-03-01T03:38:50;20.95;;;9.43;;
10009;SDS011;5044;48.652;9.250;2023-03-01T03:41:17;20.08;;;10.00;;
10009;SDS011;5044;48.652;9.250;2023-03-01T03:43:44;19.20;;;9.25;;
10009;SDS011;5044;48.652;9.250;2023-03-01T03:46:11;14.32;;;10.00;;
10009;SDS011;5044;48.652;9.250;2023-03-01T03:48:39;17.38;;;9.73;;
10009;SDS011;5044;48.652;9.250;2023-03-01T03:51:11;19.50;;;9.63;;
10009;SDS011;5044;48.652;9.250;2023-03-01T03:53:39;20.58;;;9.27;;
10009;SDS011;5044;48.652;9.250;2023-03-01T03:56:06;17.58;;;9.68;;
10009;SDS011;5044;48.652;9.250;2023-03-01T03:58:33;17.42;;;9.30;;
10009;SDS011;5044;48.652;9.250;2023-03-01T04:01:00;17.48;;;8.57;;
10009;SDS011;5044;48.652;9.250;2023-03-01T04:03:28;17.55;;;9.60;;
10009;SDS011;5044;48.652;9.250;2023-03-01T04:05:57;18.98;;;8.77;;
10009;SDS011;5044;48.652;9.250;2023-03-01T04:08:28;17.90;;;8.88;;
10009;SDS011;5044;48.652;9.250;2023-03-01T04:10:59;21.40;;;10.60;;
10009;SDS011;5044;48.652;9.250;2023-03-01T04:16:14;19.05;;;9.52;;
10009;SDS011;5044;48.652;9.250;2023-03-01T04:18:42;17.33;;;9.57;;
10009;SDS011;5044;48.652;9.250;2023-03-01T04:21:09;17.65;;;10.15;;
10009;SDS011;5044;48.652;9.250;2023-03-01T04:23:38;17.13;;;10.02;;
10009;SDS011;5044;48.652;9.250;2023-03-01T04:26:17;20.08;;;10.52;;
10009;SDS011;5044;48.652;9.250;2023-03-01T04:28:45;20.25;;;10.20;;
10009;SDS011;5044;48.652;9.250;2023-03-01T04:31:14;19.70;;;10.38;;
10009;SDS011;5044;48.652;9.250;2023-03-01T04:33:44;21.20;;;9.95;;
10009;SDS011;5044;48.652;9.250;2023-03-01T04:36:13;19.55;;;9.63;;
10009;SDS011;5044;48.652;9.250;2023-03-01T04:38:44;20.27;;;10.18;;
10009;SDS011;5044;48.652;9.250;2023-03-01T04:41:12;25.42;;;11.52;;
10009;SDS011;5044;48.652;9.250;2023-03-01T04:43:41;16.10;;;9.82;;
10009;SDS011;5044;48.652;9.250;2023-03-01T04:46:09;17.70;;;9.45;;
10009;SDS011;5044;48.652;9.250;2023-03-01T04:48:39;19.98;;;10.13;;
10009;SDS011;5044;48.652;9.250;2023-03-01T04:51:08;17.98;;;10.13;;
10009;SDS011;5044;48.652;9.250;2023-03-01T04:53:38;20.27;;;9.88;;
10009;SDS011;5044;48.652;9.250;2023-03-01T04:56:07;18.77;;;9.48;;
10009;SDS011;5044;48.652;9.250;2023-03-01T04:58:34;21.70;;;12.13;;
10009;SDS011;5044;48.652;9.250;2023-03-01T05:01:01;19.27;;;10.45;;
10009;SDS011;5044;48.652;9.250;2023-03-01T05:03:40;22.13;;;10.55;;
10009;SDS011;5044;48.652;9.250;2023-03-01T05:06:08;24.98;;;12.57;;
10009;SDS011;5044;48.652;9.250;2023-03-01T05:08:37;22.20;;;10.85;;
10009;SDS011;5044;48.652;9.250;2023-03-01T05:11:04;20.92;;;10.43;;
10009;SDS011;5044;48.652;9.250;2023-03-01T05:13:38;21.25;;;9.52;;
10009;SDS011;5044;48.652;9.250;2023-03-01T05:16:09;19.75;;;10.52;;
10009;SDS011;5044;48.652;9.250;2023-03-01T05:18:38;23.73;;;11.50;;
10009;SDS011;5044;48.652;9.250;2023-03-01T05:21:09;21.05;;;9.60;;
10009;SDS011;5044;48.652;9.250;2023-03-01T05:23:37;21.63;;;11.15;;
10009;SDS011;5044;48.652;9.250;2023-03-01T05:26:05;20.23;;;10.10;;
10009;SDS011;5044;48.652;9.250;2023-03-01T05:28:33;19.38;;;9.27;;
10009;SDS011;5044;48.652;9.250;2023-03-01T05:31:04;21.08;;;10.20;;
10009;SDS011;5044;48.652;9.250;2023-03-01T05:33:35;22.20;;;10.93;;
10009;SDS011;5044;48.652;9.250;2023-03-01T05:36:03;21.65;;;10.63;;
10009;SDS011;5044;48.652;9.250;2023-03-01T05:38:30;21.00;;;11.63;;
10009;SDS011;5044;48.652;9.250;2023-03-01T05:40:58;26.60;;;11.00;;
10009;SDS011;5044;48.652;9.250;2023-03-01T05:43:29;20.02;;;10.82;;
10009;SDS011;5044;48.652;9.250;2023-03-01T05:46:00;26.48;;;12.02;;
10009;SDS011;5044;48.652;9.250;2023-03-01T05:48:28;18.88;;;10.45;;
10009;SDS011;5044;48.652;9.250;2023-03-01T05:50:57;18.63;;;9.52;;
10009;SDS011;5044;48.652;9.250;2023-03-01T05:53:26;20.48;;;10.27;;
10009;SDS011;5044;48.652;9.250;2023-03-01T05:55:53;21.23;;;11.38;;
10009;SDS011;5044;48.652;9.250;2023-03-01T05:58:20;18.90;;;10.73;;
10009;SDS011;5044;48.652;9.250;2023-03-01T06:00:49;27.10;;;11.75;;
10009;SDS011;5044;48.652;9.250;2023-03-01T06:03:16;21.80;;;11.65;;
10009;SDS011;5044;48.652;9.250;2023-03-01T06:05:45;21.48;;;11.38;;
10009;SDS011;5044;48.652;9.250;2023-03-01T06:08:12;22.50;;;9.63;;
10009;SDS011;5044;48.652;9.250;2023-03-01T06:10:40;19.10;;;10.02;;
10009;SDS011;5044;48.652;9.250;2023-03-01T06:13:07;23.10;;;10.68;;
10009;SDS011;5044;48.652;9.250;2023-03-01T06:15:34;22.13;;;10.95;;
10009;SDS011;5044;48.652;9.250;2023-03-01T06:18:01;20.88;;;10.63;;
10009;SDS011;5044;48.652;9.250;2023-03-01T06:20:29;21.60;;;11.15;;
10009;SDS011;5044;48.652;9.250;2023-03-01T06:22:58;21.70;;;9.25;;
10009;SDS011;5044;48.652;9.250;2023-03-01T06:25:26;19.65;;;10.68;;
10009;SDS011;5044;48.652;9.250;2023-03-01T06:27:55;19.98;;;9.80;;
10009;SDS011;5044;48.652;9.250;2023-03-01T06:30:26;22.93;;;12.67;;
10009;SDS011;5044;48.652;9.250;2023-03-01T06:32:56;19.98;;;10.25;;
10009;SDS011;5044;48.652;9.250;2023-03-01T06:35:26;21.42;;;11.07;;
10009;SDS011;5044;48.652;9.250;2023-03-01T06:37:55;21.27;;;10.98;;
10009;SDS011;5044;48.652;9.250;2023-03-01T06:40:41;21.83;;;10.95;;
10009;SDS011;5044;48.652;9.250;2023-03-01T06:43:11;24.58;;;10.85;;
10009;SDS011;5044;48.652;9.250;2023-03-01T06:45:38;23.20;;;12.50;;
10009;SDS011;5044;48.652;9.250;2023-03-01T06:48:05;17.98;;;9.85;;
10009;SDS011;5044;48.652;9.250;2023-03-01T06:50:33;23.35;;;11.02;;
10009;SDS011;5044;48.652;9.250;2023-03-01T06:53:01;21.92;;;10.48;;
10009;SDS011;5044;48.652;9.250;2023-03-01T06:55:30;27.95;;;12.30;;
10009;SDS011;5044;48.652;9.250;2023-03-01T06:58:04;22.90;;;11.43;;
10009;SDS011;5044;48.652;9.250;2023-03-01T07:03:00;22.30;;;10.95;;
10009;SDS011;5044;48.652;9.250;2023-03-01T07:05:48;24.05;;;11.30;;
10009;SDS011;5044;48.652;9.250;2023-03-01T07:08:24;18.83;;;10.10;;
10009;SDS011;5044;48.652;9.250;2023-03-01T07:10:57;20.70;;;10.10;;
10009;SDS011;5044;48.652;9.250;2023-03-01T07:13:28;21.63;;;11.07;;
10009;SDS011;5044;48.652;9.250;2023-03-01T07:15:55;25.50;;;10.88;;
10009;SDS011;5044;48.652;9.250;2023-03-01T07:18:24;20.02;;;11.40;;
10009;SDS011;5044;48.652;9.250;2023-03-01T07:21:09;20.40;;;10.90;;
10009;SDS011;5044;48.652;9.250;2023-03-01T07:23:39;19.45;;;9.88;;
10009;SDS011;5044;48.652;9.250;2023-03-01T07:26:13;19.30;;;10.20;;
10009;SDS011;5044;48.652;9.250;2023-03-01T07:28:44;24.20;;;10.13;;
10009;SDS011;5044;48.652;9.250;2023-03-01T07:31:11;20.67;;;10.60;;
10009;SDS011;5044;48.652;9.250;2023-03-01T07:33:39;22.08;;;11.25;;
10009;SDS011;5044;48.652;9.250;2023-03-01T07:36:06;19.00;;;9.88;;
10009;SDS011;5044;48.652;9.250;2023-03-01T07:38:38;19.35;;;10.98;;
10009;SDS011;5044;48.652;9.250;2023-03-01T07:41:05;19.88;;;10.18;;
10009;SDS011;5044;48.652;9.250;2023-03-01T07:43:32;22.60;;;11.02;;
10009;SDS011;5044;48.652;9.250;2023-03-01T07:46:02;20.95;;;11.73;;
10009;SDS011;5044;48.652;9.250;2023-03-01T07:48:30;21.30;;;10.63;;
10009;SDS011;5044;48.652;9.250;2023-03-01T07:50:58;20.65;;;11.70;;
10009;SDS011;5044;48.652;9.250;2023-03-01T07:53:25;26.90;;;11.43;;
10009;SDS011;5044;48.652;9.250;2023-03-01T07:56:00;18.80;;;9.25;;
10009;SDS011;5044;48.652;9.250;2023-03-01T07:58:28;21.20;;;11.45;;
10009;SDS011;5044;48.652;9.250;2023-03-01T08:00:54;24.92;;;10.02;;
10009;SDS011;5044;48.652;9.250;2023-03-01T08:03:23;22.50;;;11.10;;
10009;SDS011;5044;48.652;9.250;2023-03-01T08:05:50;20.38;;;11.25;;
10009;SDS011;5044;48.652;9.250;2023-03-01T08:08:17;22.83;;;13.05;;
10009;SDS011;5044;48.652;9.250;2023-03-01T08:10:43;23.80;;;11.85;;
10009;SDS011;5044;48.652;9.250;2023-03-01T08:13:10;19.10;;;10.77;;
10009;SDS011;5044;48.652;9.250;2023-03-01T08:15:37;19.10;;;11.15;;
10009;SDS011;5044;48.652;9.250;2023-03-01T08:18:04;27.48;;;11.15;;
10009;SDS011;5044;48.652;9.250;2023-03-01T08:20:33;21.85;;;9.82;;
10009;SDS011;5044;48.652;9.250;2023-03-01T08:23:00;26.15;;;11.70;;
10009;SDS011;5044;48.652;9.250;2023-03-01T08:25:27;21.70;;;11.43;;
10009;SDS011;5044;48.652;9.250;2023-03-01T08:27:53;20.80;;;9.55;;
10009;SDS011;5044;48.652;9.250;2023-03-01T08:30:20;22.40;;;9.82;;
10009;SDS011;5044;48.652;9.250;2023-03-01T08:32:49;17.88;;;9.63;;
10009;SDS011;5044;48.652;9.250;2023-03-01T08:35:16;19.63;;;9.95;;
10009;SDS011;5044;48.652;9.250;2023-03-01T08:37:45;20.77;;;9.88;;
10009;SDS011;5044;48.652;9.250;2023-03-01T08:40:13;19.50;;;11.88;;
10009;SDS011;5044;48.652;9.250;2023-03-01T08:42:40;19.08;;;9.15;;
10009;SDS011;5044;48.652;9.250;2023-03-01T08:45:09;22.08;;;10.30;;
10009;SDS011;5044;48.652;9.250;2023-03-01T08:47:37;18.05;;;10.38;;
10009;SDS011;5044;48.652;9.250;2023-03-01T08:50:04;17.25;;;9.27;;
10009;SDS011;5044;48.652;9.250;2023-03-01T08:52:32;18.33;;;10.02;;
10009;SDS011;5044;48.652;9.250;2023-03-01T08:55:00;16.77;;;9.75;;
10009;SDS011;5044;48.652;9.250;2023-03-01T08:57:27;20.60;;;9.57;;
10009;SDS011;5044;48.652;9.250;2023-03-01T08:59:54;18.15;;;10.43;;
10009;SDS011;5044;48.652;9.250;2023-03-01T09:02:22;16.40;;;9.63;;
10009;SDS011;5044;48.652;9.250;2023-03-01T09:04:49;21.23;;;10.95;;
10009;SDS011;5044;48.652;9.250;2023-03-01T09:07:16;20.00;;;11.35;;
10009;SDS011;5044;48.652;9.250;2023-03-01T09:09:42;19.48;;;11.23;;
10009;SDS011;5044;48.652;9.250;2023-03-01T09:12:11;18.30;;;10.50;;
10009;SDS011;5044;48.652;9.250;2023-03-01T09:14:37;17.23;;;10.88;;
10009;SDS011;5044;48.652;9.250;2023-03-01T09:17:06;18.05;;;11.45;;
10009;SDS011;5044;48.652;9.250;2023-03-01T09:19:33;17.70;;;9.75;;
10009;SDS011;5044;48.652;9.250;2023-03-01T09:22:00;19.30;;;11.75;;
10009;SDS011;5044;48.652;9.250;2023-03-01T09:24:28;18.80;;;11.27;;
10009;SDS011;5044;48.652;9.250;2023-03-01T09:26:55;21.00;;;10.65;;
10009;SDS011;5044;48.652;9.250;2023-03-01T09:29:24;17.75;;;10.43;;
10009;SDS011;5044;48.652;9.250;2023-03-01T09:31:51;20.30;;;11.13;;
10009;SDS011;5044;48.652;9.250;2023-03-01T09:34:20;18.00;;;9.27;;
10009;SDS011;5044;48.652;9.250;2023-03-01T09:36:48;16.10;;;8.98;;
10009;SDS011;5044;48.652;9.250;2023-03-01T09:39:15;15.88;;;9.98;;
10009;SDS011;5044;48.652;9.250;2023-03-01T09:41:45;17.55;;;10.70;;
10009;SDS011;5044;48.652;9.250;2023-03-01T09:44:26;21.10;;;10.77;;
10009;SDS011;5044;48.652;9.250;2023-03-01T09:46:57;17.00;;;9.65;;
10009;SDS011;5044;48.652;9.250;2023-03-01T09:49:26;17.52;;;9.93;;
10009;SDS011;5044;48.652;9.250;2023-03-01T09:51:56;18.88;;;10.23;;
10009;SDS011;5044;48.652;9.250;2023-03-01T09:54:26;18.55;;;10.98;;
10009;SDS011;5044;48.652;9.250;2023-03-01T10:02:55;22.67;;;10.23;;
10009;SDS011;5044;48.652;9.250;2023-03-01T10:05:31;17.73;;;10.32;;
10009;SDS011;5044;48.652;9.250;2023-03-01T10:08:13;17.20;;;10.93;;
10009;SDS011;5044;48.652;9.250;2023-03-01T10:10:54;18.17;;;9.75;;
10009;SDS011;5044;48.652;9.250;2023-03-01T10:13:24;19.85;;;11.55;;
10009;SDS011;5044;48.652;9.250;2023-03-01T10:15:56;17.25;;;10.25;;
10009;SDS011;5044;48.652;9.250;2023-03-01T10:20:58;14.68;;;10.10;;
10009;SDS011;5044;48.652;9.250;2023-03-01T10:23:28;19.02;;;9.60;;
10009;SDS011;5044;48.652;9.250;2023-03-01T10:26:04;18.73;;;9.38;;
10009;SDS011;5044;48.652;9.250;2023-03-01T10:28:40;16.25;;;10.65;;
10009;SDS011;5044;48.652;9.250;2023-03-01T10:31:17;16.60;;;10.65;;
10009;SDS011;5044;48.652;9.250;2023-03-01T10:33:48;19.42;;;11.50;;
10009;SDS011;5044;48.652;9.250;2023-03-01T10:36:19;18.00;;;11.90;;
10009;SDS011;5044;48.652;9.250;2023-03-01T10:38:47;18.08;;;11.57;;
10009;SDS011;5044;48.652;9.250;2023-03-01T10:41:17;18.25;;;10.27;;
10009;SDS011;5044;48.652;9.250;2023-03-01T10:43:45;18.52;;;10.52;;
10009;SDS011;5044;48.652;9.250;2023-03-01T10:46:25;17.42;;;10.55;;
10009;SDS011;5044;48.652;9.250;2023-03-01T10:51:43;19.67;;;11.40;;
10009;SDS011;5044;48.652;9.250;2023-03-01T10:54:18;20.60;;;11.00;;
10009;SDS011;5044;48.652;9.250;2023-03-01T10:56:51;17.48;;;9.48;;
10009;SDS011;5044;48.652;9.250;2023-03-01T10:59:22;15.85;;;9.60;;
10009;SDS011;5044;48.652;9.250;2023-03-01T11:02:04;14.52;;;9.93;;
10009;SDS011;5044;48.652;9.250;2023-03-01T11:04:52;17.50;;;10.30;;
10009;SDS011;5044;48.652;9.250;2023-03-01T11:07:23;18.23;;;9.98;;
10009;SDS011;5044;48.652;9.250;2023-03-01T11:09:50;15.02;;;8.73;;
10009;SDS011;5044;48.652;9.250;2023-03-01T11:12:17;18.45;;;10.35;;
10009;SDS011;5044;48.652;9.250;2023-03-01T11:14:46;16.80;;;10.20;;
10009;SDS011;5044;48.652;9.250;2023-03-01T11:17:15;17.67;;;10.15;;
10009;SDS011;5044;48.652;9.250;2023-03-01T11:19:51;15.43;;;9.80;;
10009;SDS011;5044;48.652;9.250;2023-03-01T11:22:26;16.45;;;10.23;;
10009;SDS011;5044;48.652;9.250;2023-03-01T11:24:55;18.63;;;9.80;;
10009;SDS011;5044;48.652;9.250;2023-03-01T11:27:24;12.60;;;8.35;;
10009;SDS011;5044;48.652;9.250;2023-03-01T11:29:53;15.20;;;9.93;;
10009;SDS011;5044;48.652;9.250;2023-03-01T11:32:27;15.73;;;9.65;;
10009;SDS011;5044;48.652;9.250;2023-03-01T11:35:00;15.35;;;9.63;;
10009;SDS011;5044;48.652;9.250;2023-03-01T11:37:33;15.90;;;9.90;;
10009;SDS011;5044;48.652;9.250;2023-03-01T11:40:07;14.98;;;8.60;;
10009;SDS011;5044;48.652;9.250;2023-03-01T11:42:42;17.95;;;9.25;;
10009;SDS011;5044;48.652;9.250;2023-03-01T11:45:16;18.80;;;8.75;;
10009;SDS011;5044;48.652;9.250;2023-03-01T11:47:53;14.32;;;9.82;;
10009;SDS011;5044;48.652;9.250;2023-03-01T11:50:30;17.27;;;10.27;;
10009;SDS011;5044;48.652;9.250;2023-03-01T11:53:23;16.52;;;10.27;;
10009;SDS011;5044;48.652;9.250;2023-03-01T11:56:15;15.35;;;10.23;;
10009;SDS011;5044;48.652;9.250;2023-03-01T11:58:54;15.75;;;10.27;;
10009;SDS011;5044;48.652;9.250;2023-03-01T12:07:23;14.85;;;8.82;;
10009;SDS011;5044;48.652;9.250;2023-03-01T12:16:10;15.10;;;9.02;;
10009;SDS011;5044;48.652;9.250;2023-03-01T12:18:52;13.98;;;8.38;;
10009;SDS011;5044;48.652;9.250;2023-03-01T12:21:40;14.30;;;9.45;;
10009;SDS011;5044;48.652;9.250;2023-03-01T12:24:21;14.40;;;8.55;;
10009;SDS011;5044;48.652;9.250;2023-03-01T12:27:06;14.25;;;10.43;;
10009;SDS011;5044;48.652;9.250;2023-03-01T12:29:45;24.60;;;11.10;;
10009;SDS011;5044;48.652;9.250;2023-03-01T12:32:25;18.08;;;11.15;;
10009;SDS011;5044;48.652;9.250;2023-03-01T12:35:11;14.98;;;10.15;;
10009;SDS011;5044;48.652;9.250;2023-03-01T12:38:01;18.40;;;10.32;;
10009;SDS011;5044;48.652;9.250;2023-03-01T12:46:23;15.13;;;9.27;;
10009;SDS011;5044;48.652;9.250;2023-03-01T12:49:00;17.35;;;11.10;;
10009;SDS011;5044;48.652;9.250;2023-03-01T12:51:36;17.65;;;10.88;;
10009;SDS011;5044;48.652;9.250;2023-03-01T12:54:05;15.25;;;10.23;;
10009;SDS011;5044;48.652;9.250;2023-03-01T12:56:40;14.80;;;10.18;;
10009;SDS011;5044;48.652;9.250;2023-03-01T12:59:11;14.70;;;10.07;;
10009;SDS011;5044;48.652;9.250;2023-03-01T13:01:44;15.50;;;9.80;;
10009;SDS011;5044;48.652;9.250;2023-03-01T13:04:28;17.45;;;11.40;;
10009;SDS011;5044;48.652;9.250;2023-03-01T13:07:18;15.45;;;9.65;;
10009;SDS011;5044;48.652;9.250;2023-03-01T13:09:55;12.70;;;9.10;;
10009;SDS011;5044;48.652;9.250;2023-03-01T13:15:27;13.20;;;8.80;;
10009;SDS011;5044;48.652;9.250;2023-03-01T13:17:57;15.45;;;10.63;;
10009;SDS011;5044;48.652;9.250;2023-03-01T13:20:25;14.98;;;10.77;;
10009;SDS011;5044;48.652;9.250;2023-03-01T13:23:13;14.13;;;9.10;;
10009;SDS011;5044;48.652;9.250;2023-03-01T13:34:39;19.40;;;11.52;;
10009;SDS011;5044;48.652;9.250;2023-03-01T13:37:09;13.55;;;9.27;;
10009;SDS011;5044;48.652;9.250;2023-03-01T13:39:39;16.67;;;11.60;;
10009;SDS011;5044;48.652;9.250;2023-03-01T13:45:16;16.65;;;11.07;;
10009;SDS011;5044;48.652;9.250;2023-03-01T13:47:49;15.05;;;9.88;;
10009;SDS011;5044;48.652;9.250;2023-03-01T13:50:21;16.90;;;11.18;;
10009;SDS011;5044;48.652;9.250;2023-03-01T13:52:52;16.20;;;11.17;;
10009;SDS011;5044;48.652;9.250;2023-03-01T13:57:52;14.13;;;9.80;;
10009;SDS011;5044;48.652;9.250;2023-03-01T14:00:29;17.23;;;10.50;;
10009;SDS011;5044;48.652;9.250;2023-03-01T14:03:09;13.05;;;9.60;;
10009;SDS011;5044;48.652;9.250;2023-03-01T14:05:38;17.30;;;8.57;;
10009;SDS011;5044;48.652;9.250;2023-03-01T14:08:17;13.73;;;9.15;;
10009;SDS011;5044;48.652;9.250;2023-03-01T14:10:49;15.85;;;8.52;;
10009;SDS011;5044;48.652;9.250;2023-03-01T14:13:33;20.48;;;10.23;;
10009;SDS011;5044;48.652;9.250;2023-03-01T14:16:20;12.82;;;9.30;;
10009;SDS011;5044;48.652;9.250;2023-03-01T14:19:00;13.43;;;8.80;;
10009;SDS011;5044;48.652;9.250;2023-03-01T14:21:37;16.13;;;7.78;;
10009;SDS011;5044;48.652;9.250;2023-03-01T14:24:04;12.07;;;8.02;;
10009;SDS011;5044;48.652;9.250;2023-03-01T14:26:31;14.00;;;8.57;;
10009;SDS011;5044;48.652;9.250;2023-03-01T14:29:01;12.27;;;8.38;;
10009;SDS011;5044;48.652;9.250;2023-03-01T14:31:32;14.10;;;8.43;;
10009;SDS011;5044;48.652;9.250;2023-03-01T14:34:03;12.38;;;8.35;;
10009;SDS011;5044;48.652;9.250;2023-03-01T14:36:32;11.07;;;7.72;;
10009;SDS011;5044;48.652;9.250;2023-03-01T14:39:00;13.35;;;9.15;;
10009;SDS011;5044;48.652;9.250;2023-03-01T14:41:31;12.20;;;8.57;;
10009;SDS011;5044;48.652;9.250;2023-03-01T14:44:00;12.20;;;8.35;;
10009;SDS011;5044;48.652;9.250;2023-03-01T14:46:30;12.15;;;8.25;;
10009;SDS011;5044;48.652;9.250;2023-03-01T14:49:01;13.52;;;8.02;;
10009;SDS011;5044;48.652;9.250;2023-03-01T14:51:34;12.40;;;8.63;;
10009;SDS011;5044;48.652;9.250;2023-03-01T14:54:03;14.15;;;8.45;;
10009;SDS011;5044;48.652;9.250;2023-03-01T14:56:42;13.32;;;8.82;;
10009;SDS011;5044;48.652;9.250;2023-03-01T14:59:10;15.38;;;8.80;;
10009;SDS011;5044;48.652;9.250;2023-03-01T15:01:39;15.90;;;9.15;;
10009;SDS011;5044;48.652;9.250;2023-03-01T15:04:10;12.40;;;9.30;;
10009;SDS011;5044;48.652;9.250;2023-03-01T15:06:39;12.90;;;8.85;;
10009;SDS011;5044;48.652;9.250;2023-03-01T15:09:07;13.85;;;8.30;;
10009;SDS011;5044;48.652;9.250;2023-03-01T15:11:40;13.48;;;8.90;;
10009;SDS011;5044;48.652;9.250;2023-03-01T15:16:54;14.10;;;8.95;;
10009;SDS011;5044;48.652;9.250;2023-03-01T15:19:23;13.90;;;8.88;;
10009;SDS011;5044;48.652;9.250;2023-03-01T15:21:52;13.07;;;8.32;;
10009;SDS011;5044;48.652;9.250;2023-03-01T15:24:20;13.40;;;8.32;;
10009;SDS011;5044;48.652;9.250;2023-03-01T15:26:50;15.83;;;8.40;;
10009;SDS011;5044;48.652;9.250;2023-03-01T15:29:21;12.40;;;8.38;;
10009;SDS011;5044;48.652;9.250;2023-03-01T15:31:56;13.50;;;8.10;;
10009;SDS011;5044;48.652;9.250;2023-03-01T15:34:26;12.18;;;8.15;;
10009;SDS011;5044;48.652;9.250;2023-03-01T15:36:56;14.18;;;8.93;;
10009;SDS011;5044;48.652;9.250;2023-03-01T15:39:35;14.07;;;8.88;;
10009;SDS011;5044;48.652;9.250;2023-03-01T15:42:05;10.98;;;7.90;;
10009;SDS011;5044;48.652;9.250;2023-03-01T15:44:34;12.65;;;8.45;;
10009;SDS011;5044;48.652;9.250;2023-03-01T15:47:03;14.57;;;8.18;;
10009;SDS011;5044;48.652;9.250;2023-03-01T15:49:50;12.88;;;8.25;;
10009;SDS011;5044;48.652;9.250;2023-03-01T15:52:19;17.50;;;9.48;;
10009;SDS011;5044;48.652;9.250;2023-03-01T15:54:54;14.63;;;8.98;;
10009;SDS011;5044;48.652;9.250;2023-03-01T15:57:21;13.77;;;8.35;;
10009;SDS011;5044;48.652;9.250;2023-03-01T15:59:49;12.30;;;8.60;;
10009;SDS011;5044;48.652;9.250;2023-03-01T16:02:16;12.20;;;8.55;;
10009;SDS011;5044;48.652;9.250;2023-03-01T16:04:46;18.98;;;8.35;;